createdAt,value
2022-10-19T08:23:15.163Z,9.32
2022-10-19T08:25:41.631Z,7.10
2022-10-19T08:28:08.063Z,6.20
2022-10-19T08:30:35.257Z,4.72
2022-10-19T08:36:44.047Z,2.97
2022-10-19T08:42:50.688Z,4.18
2022-10-19T08:45:50.475Z,4.10
2022-10-19T08:55:51.127Z,2.25
2022-10-19T08:58:40.909Z,1.90
2022-10-19T09:01:09.729Z,2.22
2022-10-19T09:03:57.637Z,2.20
2022-10-19T09:06:32.377Z,1.80
2022-10-19T09:08:58.939Z,2.25
2022-10-19T09:11:27.065Z,1.95
2022-10-19T09:14:19.880Z,1.95
2022-10-19T09:16:46.538Z,1.85
2022-10-19T09:19:14.130Z,2.00
2022-10-19T09:21:47.590Z,2.67
2022-10-19T09:24:32.847Z,2.13
2022-10-19T09:26:59.776Z,2.53
2022-10-19T09:29:37.246Z,1.08
2022-10-19T09:32:04.671Z,1.48
2022-10-19T09:34:38.526Z,1.73
2022-10-19T09:37:05.134Z,1.65
2022-10-19T09:39:31.744Z,2.03
2022-10-19T09:41:59.295Z,1.65
2022-10-19T09:44:26.109Z,1.10
2022-10-19T09:46:58.477Z,1.55
2022-10-19T09:49:43.426Z,1.38
2022-10-19T09:52:22.979Z,1.55
2022-10-19T09:54:59.947Z,1.30
2022-10-19T09:57:26.532Z,1.38
2022-10-19T09:59:56.277Z,1.40
2022-10-19T10:02:28.612Z,1.60
2022-10-19T10:04:56.054Z,1.73
2022-10-19T10:07:23.488Z,1.58
2022-10-19T10:09:49.940Z,1.80
2022-10-19T10:12:16.509Z,1.52
2022-10-19T10:14:43.275Z,1.33
2022-10-19T10:17:14.799Z,1.52
2022-10-19T10:19:49.353Z,1.83
2022-10-19T10:22:24.019Z,1.58
2022-10-19T10:24:54.507Z,1.65
2022-10-19T10:27:25.474Z,1.42
2022-10-19T10:32:21.814Z,1.77
2022-10-19T10:35:01.985Z,1.45
2022-10-19T10:37:41.644Z,1.20
2022-10-19T10:40:21.214Z,1.05
2022-10-19T10:42:49.792Z,1.38
2022-10-19T10:45:17.423Z,1.40
2022-10-19T10:47:48.234Z,1.10
2022-10-19T10:50:22.514Z,1.33
2022-10-19T10:52:56.432Z,1.70
2022-10-19T10:55:22.896Z,0.90
2022-10-19T10:57:50.669Z,1.10
2022-10-19T11:00:21.893Z,1.10
2022-10-19T11:03:02.572Z,1.45
2022-10-19T11:05:30.695Z,1.02
2022-10-19T11:08:12.443Z,1.42
2022-10-19T11:10:57.697Z,1.15
2022-10-19T11:13:26.510Z,1.00
2022-10-19T11:16:00.621Z,1.17
2022-10-19T11:18:30.722Z,1.20
2022-10-19T11:21:00.393Z,1.30
2022-10-19T11:23:31.069Z,0.90
2022-10-19T11:25:57.529Z,1.70
2022-10-19T11:28:24.031Z,1.40
2022-10-19T11:30:53.581Z,1.30
2022-10-19T11:33:23.275Z,1.20
2022-10-19T11:35:59.416Z,1.40
2022-10-19T11:38:34.285Z,1.20
2022-10-19T11:41:20.041Z,1.55
2022-10-19T11:43:46.494Z,1.00
2022-10-19T11:46:31.662Z,1.00
2022-10-19T11:49:07.494Z,1.10
2022-10-19T11:51:36.807Z,1.00
2022-10-19T11:54:21.603Z,0.90
2022-10-19T11:57:04.083Z,1.00
2022-10-19T11:59:34.387Z,1.27
2022-10-19T12:02:03.970Z,0.88
2022-10-19T12:04:46.927Z,0.90
2022-10-19T12:07:39.898Z,0.68
2022-10-19T12:10:08.551Z,0.93
2022-10-19T12:12:38.821Z,0.80
2022-10-19T12:15:11.867Z,0.85
2022-10-19T12:17:38.766Z,0.80
2022-10-19T12:20:09.508Z,0.90
2022-10-19T12:22:37.530Z,0.93
2022-10-19T12:25:04.207Z,0.90
2022-10-19T12:27:33.505Z,0.90
2022-10-19T12:30:03.114Z,1.08
2022-10-19T12:32:29.589Z,0.90
2022-10-19T12:35:08.018Z,0.90
2022-10-19T12:37:36.182Z,0.82
2022-10-19T12:40:06.006Z,1.20
2022-10-19T12:42:52.076Z,0.90
2022-10-19T12:45:19.549Z,1.35
2022-10-19T12:48:04.634Z,1.00
2022-10-19T12:50:49.770Z,0.90
2022-10-19T12:53:36.067Z,0.80
2022-10-19T12:56:03.502Z,2.08
2022-10-19T12:58:38.275Z,0.85
2022-10-19T13:01:05.406Z,1.15
2022-10-19T13:03:33.683Z,1.30
2022-10-19T13:06:01.177Z,1.30
2022-10-19T13:08:29.424Z,1.38
2022-10-19T13:11:09.585Z,1.23
2022-10-19T13:13:55.782Z,1.60
2022-10-19T13:16:28.275Z,1.75
2022-10-19T13:19:03.910Z,1.63
2022-10-19T13:21:49.369Z,1.20
2022-10-19T13:24:34.955Z,1.00
2022-10-19T13:27:04.493Z,0.90
2022-10-19T13:29:37.079Z,0.90
2022-10-19T13:32:22.283Z,1.45
2022-10-19T13:34:48.860Z,1.30
2022-10-19T13:37:15.360Z,1.05
2022-10-19T13:39:41.828Z,1.15
2022-10-19T13:42:22.443Z,0.98
2022-10-19T13:44:49.893Z,1.13
2022-10-19T13:47:16.790Z,1.17
2022-10-19T13:50:02.141Z,1.20
2022-10-19T13:52:31.967Z,1.23
2022-10-19T13:54:58.592Z,1.27
2022-10-19T13:57:56.101Z,1.20
2022-10-19T14:00:24.280Z,2.33
2022-10-19T14:02:53.817Z,1.30
2022-10-19T14:05:39.004Z,1.40
2022-10-19T14:08:24.475Z,1.08
2022-10-19T14:11:00.534Z,1.20
2022-10-19T14:13:27.934Z,1.42
2022-10-19T14:15:55.524Z,1.10
2022-10-19T14:18:26.213Z,1.80
2022-10-19T14:20:56.743Z,1.30
2022-10-19T14:23:41.889Z,1.40
2022-10-19T14:26:12.432Z,1.55
2022-10-19T14:28:39.130Z,2.13
2022-10-19T14:31:06.283Z,1.52
2022-10-19T14:33:33.695Z,1.77
2022-10-19T14:36:00.112Z,3.00
2022-10-19T14:38:28.845Z,1.83
2022-10-19T14:40:56.662Z,2.33
2022-10-19T14:43:30.136Z,2.15
2022-10-19T14:46:08.948Z,2.05
2022-10-19T14:48:35.759Z,1.55
2022-10-19T14:51:02.259Z,1.60
2022-10-19T14:53:37.743Z,2.42
2022-10-19T14:56:17.466Z,1.58
2022-10-19T14:58:46.984Z,0.80
2022-10-19T15:01:13.675Z,1.40
2022-10-19T15:03:43.541Z,1.30
2022-10-19T15:06:13.358Z,1.25
2022-10-19T15:08:42.837Z,1.00
2022-10-19T15:11:19.858Z,1.17
2022-10-19T15:13:47.547Z,1.30
2022-10-19T15:16:47.007Z,1.25
2022-10-19T15:19:19.583Z,1.58
2022-10-19T15:21:48.124Z,0.90
2022-10-19T15:24:27.552Z,1.40
2022-10-19T15:27:06.606Z,1.05
2022-10-19T15:29:37.848Z,1.10
2022-10-19T15:32:16.940Z,1.00
2022-10-19T15:34:43.455Z,1.48
2022-10-19T15:37:14.047Z,1.40
2022-10-19T15:39:44.752Z,2.05
2022-10-19T15:42:46.977Z,1.60
2022-10-19T15:45:29.207Z,1.20
2022-10-19T15:48:16.095Z,1.63
2022-10-19T15:50:47.935Z,1.30
2022-10-19T15:53:14.973Z,1.60
2022-10-19T15:55:41.527Z,1.65
2022-10-19T15:58:09.184Z,1.15
2022-10-19T16:00:35.679Z,1.25
2022-10-19T16:03:02.218Z,1.20
2022-10-19T16:05:29.029Z,1.30
2022-10-19T16:07:55.527Z,2.15
2022-10-19T16:10:22.856Z,1.60
2022-10-19T16:12:49.389Z,1.90
2022-10-19T16:15:18.601Z,1.98
2022-10-19T16:17:45.217Z,2.33
2022-10-19T16:20:11.801Z,1.95
2022-10-19T16:22:38.281Z,2.80
2022-10-19T16:25:05.029Z,2.53
2022-10-19T16:27:32.081Z,3.72
2022-10-19T16:29:58.955Z,3.20
2022-10-19T16:32:25.433Z,4.15
2022-10-19T16:34:51.924Z,4.22
2022-10-19T16:37:18.416Z,5.72
2022-10-19T16:39:44.949Z,4.68
2022-10-19T16:42:11.493Z,5.05
2022-10-19T16:44:38.035Z,4.22
2022-10-19T16:47:05.928Z,4.95
2022-10-19T16:49:32.539Z,4.57
2022-10-19T16:52:00.666Z,4.10
2022-10-19T16:54:29.837Z,4.00
2022-10-19T16:56:56.479Z,4.30
2022-10-19T16:59:23.145Z,4.68
2022-10-19T17:01:49.690Z,5.13
2022-10-19T17:04:20.193Z,5.07
2022-10-19T17:06:46.734Z,4.55
2022-10-19T17:11:59.754Z,4.00
2022-10-19T17:14:26.241Z,4.68
2022-10-19T17:17:01.732Z,6.17
2022-10-19T17:19:28.222Z,5.57
2022-10-19T17:21:55.316Z,4.22
2022-10-19T17:24:22.838Z,6.73
2022-10-19T17:26:49.926Z,5.65
2022-10-19T17:29:16.519Z,6.90
2022-10-19T17:31:43.188Z,5.85
2022-10-19T17:34:09.765Z,6.53
2022-10-19T17:36:37.787Z,4.40
2022-10-19T17:39:05.806Z,4.47
2022-10-19T17:41:32.479Z,3.20
2022-10-19T17:43:59.219Z,2.85
2022-10-19T17:46:26.785Z,4.30
2022-10-19T17:48:53.371Z,4.63
2022-10-19T17:51:21.113Z,3.35
2022-10-19T17:53:48.019Z,4.07
2022-10-19T17:56:15.222Z,3.97
2022-10-19T17:58:41.832Z,4.10
2022-10-19T18:01:09.675Z,4.20
2022-10-19T18:03:36.395Z,4.40
2022-10-19T18:06:06.851Z,4.20
2022-10-19T18:08:37.101Z,3.50
2022-10-19T18:11:04.625Z,4.45
2022-10-19T18:13:31.198Z,5.53
2022-10-19T18:16:04.999Z,4.63
2022-10-19T18:18:31.866Z,4.88
2022-10-19T18:21:01.148Z,3.83
2022-10-19T18:23:27.633Z,4.03
2022-10-19T18:25:54.649Z,4.30
2022-10-19T18:28:21.258Z,3.87
2022-10-19T18:30:47.802Z,4.75
2022-10-19T18:33:14.386Z,3.67
2022-10-19T18:35:40.937Z,4.70
2022-10-19T18:38:07.611Z,5.70
2022-10-19T18:40:34.765Z,5.73
2022-10-19T18:43:01.292Z,5.57
2022-10-19T18:45:27.735Z,3.70
2022-10-19T18:47:54.237Z,5.20
2022-10-19T18:50:20.736Z,4.33
2022-10-19T18:52:47.283Z,3.10
2022-10-19T18:55:13.743Z,4.33
2022-10-19T18:57:40.350Z,2.97
2022-10-19T19:00:07.184Z,3.40
2022-10-19T19:02:42.526Z,3.77
2022-10-19T19:05:13.173Z,3.35
2022-10-19T19:07:39.694Z,3.13
2022-10-19T19:10:06.443Z,2.50
2022-10-19T19:12:33.224Z,3.20
2022-10-19T19:14:59.937Z,3.50
2022-10-19T19:17:26.471Z,3.33
2022-10-19T19:19:52.960Z,3.37
2022-10-19T19:22:19.534Z,2.40
2022-10-19T19:24:46.061Z,2.73
2022-10-19T19:27:12.603Z,3.77
2022-10-19T19:29:39.066Z,2.27
2022-10-19T19:32:05.774Z,2.57
2022-10-19T19:34:32.468Z,3.67
2022-10-19T19:36:58.951Z,3.13
2022-10-19T19:39:25.577Z,3.70
2022-10-19T19:41:52.110Z,2.80
2022-10-19T19:44:18.787Z,2.70
2022-10-19T19:46:45.348Z,3.43
2022-10-19T19:49:12.002Z,2.80
2022-10-19T19:51:38.489Z,2.80
2022-10-19T19:54:05.510Z,2.77
2022-10-19T19:56:32.119Z,3.57
2022-10-19T19:58:59.088Z,3.40
2022-10-19T20:01:25.779Z,3.17
2022-10-19T20:03:52.373Z,3.33
2022-10-19T20:06:22.059Z,3.67
2022-10-19T20:08:51.838Z,3.60
2022-10-19T20:11:18.361Z,3.30
2022-10-19T20:13:45.434Z,3.40
2022-10-19T20:16:13.100Z,2.80
2022-10-19T20:18:40.193Z,3.40
2022-10-19T20:21:06.762Z,3.90
2022-10-19T20:23:33.307Z,4.80
2022-10-19T20:25:59.775Z,4.73
2022-10-19T20:28:26.517Z,4.77
2022-10-19T20:31:02.992Z,5.57
2022-10-19T20:33:32.935Z,5.17
2022-10-19T20:36:06.640Z,6.77
2022-10-19T20:38:33.790Z,7.33
2022-10-19T20:41:04.232Z,8.30
2022-10-19T20:43:33.686Z,8.43
2022-10-19T20:46:04.143Z,8.57
2022-10-19T20:48:31.029Z,9.37
2022-10-19T20:51:07.729Z,7.80
2022-10-19T20:53:35.361Z,7.40
2022-10-19T20:56:05.644Z,6.63
2022-10-19T20:58:32.186Z,7.30
2022-10-19T21:01:04.267Z,5.67
2022-10-19T21:03:30.793Z,5.73
2022-10-19T21:05:57.237Z,6.03
2022-10-19T21:08:23.708Z,5.57
2022-10-19T21:10:50.154Z,6.37
2022-10-19T21:13:16.595Z,4.33
2022-10-19T21:15:43.035Z,3.80
2022-10-19T21:18:09.474Z,4.53
2022-10-19T21:20:35.979Z,4.57
2022-10-19T21:23:02.440Z,3.77
2022-10-19T21:25:30.487Z,4.60
2022-10-19T21:27:57.015Z,4.20
2022-10-19T21:30:23.508Z,4.17
2022-10-19T21:32:49.979Z,4.63
2022-10-19T21:35:16.502Z,4.50
2022-10-19T21:37:42.950Z,5.03
2022-10-19T21:40:09.707Z,4.77
2022-10-19T21:42:36.128Z,4.63
2022-10-19T21:45:18.246Z,4.40
2022-10-19T21:47:48.967Z,4.53
2022-10-19T21:50:17.483Z,4.47
2022-10-19T21:52:43.875Z,5.13
2022-10-19T21:55:10.407Z,4.30
2022-10-19T21:57:37.205Z,4.87
2022-10-19T22:00:04.291Z,5.60
2022-10-19T22:02:30.865Z,4.47
2022-10-19T22:04:57.281Z,5.03
2022-10-19T22:07:23.895Z,5.30
2022-10-19T22:09:50.369Z,6.50
2022-10-19T22:12:16.824Z,14.13
2022-10-19T22:14:44.962Z,29.77
2022-10-19T22:17:11.508Z,17.63
2022-10-19T22:19:38.012Z,11.20
2022-10-19T22:22:04.450Z,8.27
2022-10-19T22:24:30.922Z,6.70
2022-10-19T22:26:57.398Z,6.03
2022-10-19T22:29:23.802Z,5.50
2022-10-19T22:31:50.271Z,8.40
2022-10-19T22:34:16.873Z,9.07
2022-10-19T22:36:43.671Z,7.00
2022-10-19T22:39:10.224Z,6.20
2022-10-19T22:42:14.245Z,5.57
2022-10-19T22:44:40.699Z,5.40
2022-10-19T22:47:07.150Z,5.50
2022-10-19T22:49:33.636Z,5.73
2022-10-19T22:52:00.113Z,4.80
2022-10-19T22:54:26.596Z,5.83
2022-10-19T22:56:53.615Z,5.20
2022-10-19T22:59:20.051Z,5.87
2022-10-19T23:01:46.532Z,6.00
2022-10-19T23:04:13.067Z,5.27
2022-10-19T23:06:39.583Z,6.13
2022-10-19T23:09:06.140Z,6.33
2022-10-19T23:11:32.635Z,6.13
2022-10-19T23:13:59.134Z,6.57
2022-10-19T23:16:25.625Z,6.93
2022-10-19T23:18:52.139Z,6.70
2022-10-19T23:21:18.613Z,7.10
2022-10-19T23:23:45.112Z,6.97
2022-10-19T23:26:11.527Z,6.90
2022-10-19T23:28:38.409Z,6.87
2022-10-19T23:31:09.160Z,7.93
2022-10-19T23:33:35.730Z,8.57
2022-10-19T23:36:08.415Z,7.50
2022-10-19T23:38:35.153Z,7.50
2022-10-19T23:41:01.726Z,7.30
2022-10-19T23:43:28.299Z,6.70
2022-10-19T23:45:54.822Z,7.57
2022-10-19T23:48:21.249Z,7.70
2022-10-19T23:50:55.514Z,7.10
2022-10-19T23:53:21.983Z,7.50
2022-10-19T23:55:48.412Z,7.77
2022-10-19T23:58:14.847Z,7.97
